Time;durP1;ratioP1;P1;durP2;ratioP2;P2;SDS_P1;SDS_P2;PMS_P1;PMS_P2;Temp;Humidity;BMP_temperature;BMP_pressure;BME280_temperature;BME280_humidity;BME280_pressure;Samples;Min_cycle;Max_cycle;Signal;HPM_P1;HPM_P2
2022/10/08 00:01:01;;;;;;;10.43;5.90;;;;;;;11.36;60.94;95659.97;5028348;28;20206;-68
2022/10/08 00:03:29;;;;;;;9.32;5.82;;;;;;;11.39;61.43;95662.31;5026466;28;20189;-67
2022/10/08 00:05:56;;;;;;;8.00;6.35;;;;;;;11.53;61.40;95666.31;5027512;28;20277;-68
2022/10/08 00:08:22;;;;;;;6.88;5.82;;;;;;;11.50;61.33;95652.59;5036883;28;20186;-66
2022/10/08 00:10:57;;;;;;;10.10;6.45;;;;;;;11.42;61.36;95648.03;5035936;28;20182;-67
2022/10/08 00:13:24;;;;;;;10.35;6.30;;;;;;;11.33;61.98;95660.22;5016134;28;20201;-67
2022/10/08 00:15:50;;;;;;;8.45;6.18;;;;;;;11.34;62.36;95650.53;5032162;28;20191;-67
2022/10/08 00:18:15;;;;;;;9.70;6.25;;;;;;;11.19;62.25;95643.06;5031420;28;20267;-67
2022/10/08 00:20:42;;;;;;;9.65;6.43;;;;;;;11.22;62.62;95649.84;5025349;28;20186;-68
2022/10/08 00:23:07;;;;;;;7.70;5.95;;;;;;;11.19;62.70;95652.75;5041780;28;20182;-67
2022/10/08 00:25:44;;;;;;;8.93;5.70;;;;;;;11.07;62.74;95643.38;5035271;28;20205;-67
2022/10/08 00:28:10;;;;;;;11.48;6.53;;;;;;;11.11;62.92;95640.31;5032144;28;20296;-67
2022/10/08 00:30:38;;;;;;;9.88;6.57;;;;;;;11.21;62.53;95633.22;5036659;28;20196;-66
2022/10/08 00:33:05;;;;;;;9.02;6.35;;;;;;;11.20;62.35;95634.22;5027502;28;20179;-67
2022/10/08 00:35:38;;;;;;;9.93;6.78;;;;;;;11.14;62.82;95636.56;5034958;28;20185;-67
2022/10/08 00:38:06;;;;;;;8.48;6.60;;;;;;;11.10;62.73;95633.38;5030299;28;20281;-67
2022/10/08 00:40:40;;;;;;;11.55;6.30;;;;;;;11.00;63.09;95622.84;5029066;28;20506;-67
2022/10/08 00:43:06;;;;;;;9.43;6.40;;;;;;;10.96;63.61;95626.75;5030377;28;20193;-68
2022/10/08 00:45:32;;;;;;;9.68;6.38;;;;;;;10.93;63.47;95634.94;5030877;28;20206;-66
2022/10/08 00:47:57;;;;;;;8.48;6.47;;;;;;;10.85;64.14;95621.59;5035320;28;20206;-67
2022/10/08 00:50:33;;;;;;;10.02;7.10;;;;;;;10.84;63.90;95619.13;5034994;28;20266;-67
2022/10/08 00:53:04;;;;;;;12.05;6.97;;;;;;;10.87;63.82;95621.47;5031277;28;20189;-67
2022/10/08 00:55:31;;;;;;;10.43;6.53;;;;;;;10.82;63.58;95621.88;5040075;28;20264;-67
2022/10/08 00:58:00;;;;;;;9.18;6.22;;;;;;;10.92;63.32;95614.00;5035543;28;20272;-67
2022/10/08 01:00:26;;;;;;;8.60;6.38;;;;;;;10.89;63.29;95612.47;5036762;28;20201;-66
2022/10/08 01:02:53;;;;;;;13.10;11.18;;;;;;;10.82;63.70;95614.00;5026774;28;20186;-66
2022/10/08 01:05:29;;;;;;;13.02;7.63;;;;;;;10.73;64.23;95620.09;5028710;28;20215;-66
2022/10/08 01:08:07;;;;;;;8.05;6.70;;;;;;;10.88;63.49;95613.47;5033669;28;20184;-67
2022/10/08 01:10:40;;;;;;;7.95;6.25;;;;;;;10.82;63.14;95592.94;5020902;28;20239;-67
2022/10/08 01:13:24;;;;;;;9.77;6.28;;;;;;;10.93;62.83;95605.97;5015912;28;20237;-67
2022/10/08 01:16:14;;;;;;;8.25;6.43;;;;;;;10.88;62.86;95600.31;5023414;28;20197;-67
2022/10/08 01:18:56;;;;;;;7.88;6.50;;;;;;;10.88;62.91;95584.53;5019788;28;20191;-67
2022/10/08 01:21:52;;;;;;;9.55;6.53;;;;;;;10.97;62.46;95581.03;5027020;28;20187;-67
2022/10/08 01:27:37;;;;;;;9.35;6.63;;;;;;;10.92;62.16;95578.00;5029992;28;20188;-67
2022/10/08 01:30:08;;;;;;;9.60;6.50;;;;;;;10.97;62.71;95577.59;5042908;28;20224;-69
2022/10/08 01:32:41;;;;;;;10.15;6.70;;;;;;;10.98;62.29;95577.44;5036258;28;20199;-67
2022/10/08 01:35:11;;;;;;;8.82;7.05;;;;;;;10.88;62.56;95576.63;5044676;28;20205;-67
2022/10/08 01:37:40;;;;;;;7.95;6.43;;;;;;;10.69;63.57;95573.97;5023589;28;20189;-67
2022/10/08 01:40:30;;;;;;;8.43;6.10;;;;;;;10.67;63.84;95574.13;5035399;28;20268;-66
2022/10/08 01:42:58;;;;;;;6.93;6.05;;;;;;;10.67;63.85;95565.44;5025037;28;20190;-67
2022/10/08 01:45:39;;;;;;;6.90;5.57;;;;;;;10.54;64.20;95560.44;5036187;28;20216;-67
2022/10/08 01:48:11;;;;;;;9.63;6.07;;;;;;;10.47;64.55;95554.88;5032342;28;20209;-66
2022/10/08 01:50:58;;;;;;;9.15;6.53;;;;;;;10.48;64.65;95563.63;5041918;28;20236;-67
2022/10/08 01:53:27;;;;;;;8.15;6.40;;;;;;;10.17;65.31;95555.81;5032211;28;20191;-67
2022/10/08 01:55:55;;;;;;;7.53;5.82;;;;;;;10.37;64.73;95559.28;5032544;28;20206;-67
2022/10/08 01:58:31;;;;;;;9.02;5.90;;;;;;;10.44;64.38;95562.22;5026714;28;20230;-67
2022/10/08 02:01:07;;;;;;;6.97;5.93;;;;;;;10.27;64.82;95561.09;5038432;28;20187;-67
2022/10/08 02:03:33;;;;;;;7.40;5.85;;;;;;;10.19;65.17;95566.19;5032671;28;20214;-66
2022/10/08 02:06:03;;;;;;;9.15;5.78;;;;;;;10.12;65.00;95566.72;5027745;28;20210;-66
2022/10/08 02:08:28;;;;;;;8.52;5.93;;;;;;;10.26;64.38;95556.78;5036879;28;20185;-66
2022/10/08 02:10:54;;;;;;;8.05;5.90;;;;;;;10.21;64.37;95572.97;5035665;28;20273;-66
2022/10/08 02:13:20;;;;;;;7.40;6.47;;;;;;;10.33;63.74;95571.06;5039159;28;20220;-66
2022/10/08 02:16:16;;;;;;;8.32;6.20;;;;;;;10.32;63.64;95579.94;5031012;28;20210;-66
2022/10/08 02:19:00;;;;;;;9.55;6.25;;;;;;;10.16;64.14;95578.63;5034854;28;20194;-65
2022/10/08 02:21:28;;;;;;;8.90;6.40;;;;;;;9.92;65.14;95578.16;5044700;28;20189;-65
2022/10/08 02:24:17;;;;;;;10.40;6.40;;;;;;;10.04;64.94;95571.81;5046482;28;20189;-65
2022/10/08 02:26:49;;;;;;;8.18;6.75;;;;;;;10.15;64.43;95571.69;5041299;28;20190;-66
2022/10/08 02:29:42;;;;;;;10.82;6.85;;;;;;;10.01;65.17;95573.88;5028742;28;20186;-65
2022/10/08 02:32:22;;;;;;;7.90;6.28;;;;;;;9.90;65.60;95580.91;5028104;28;20243;-66
2022/10/08 02:35:13;;;;;;;9.32;6.80;;;;;;;10.00;65.62;95574.88;5035343;28;20202;-66
2022/10/08 02:37:46;;;;;;;10.45;6.78;;;;;;;9.86;66.22;95573.41;5040079;28;20193;-67
2022/10/08 02:40:15;;;;;;;11.02;7.68;;;;;;;9.84;66.14;95570.94;5035718;28;20186;-66
2022/10/08 02:42:48;;;;;;;8.82;7.03;;;;;;;9.94;65.89;95568.31;5020234;28;20197;-66
2022/10/08 02:45:20;;;;;;;9.40;7.57;;;;;;;10.03;65.64;95572.78;5036315;28;20195;-66
2022/10/08 02:47:53;;;;;;;12.40;7.72;;;;;;;9.83;66.58;95568.44;5037737;28;20210;-66
2022/10/08 02:50:23;;;;;;;9.07;7.00;;;;;;;9.81;66.54;95567.72;5033099;28;20236;-66
2022/10/08 02:52:50;;;;;;;11.95;7.53;;;;;;;9.75;67.23;95584.03;5032972;28;20271;-67
2022/10/08 02:55:40;;;;;;;16.73;8.40;;;;;;;9.87;66.69;95577.72;5029603;28;20281;-67
2022/10/08 02:58:10;;;;;;;14.80;7.93;;;;;;;9.73;67.19;95571.06;5023247;28;20248;-67
2022/10/08 03:01:03;;;;;;;11.93;7.93;;;;;;;9.88;66.18;95558.34;5011811;28;20289;-67
2022/10/08 03:03:33;;;;;;;13.03;8.70;;;;;;;9.90;66.34;95569.56;5032771;28;20277;-67
2022/10/08 03:06:04;;;;;;;9.25;8.10;;;;;;;9.71;67.00;95571.16;5030087;28;20189;-66
2022/10/08 03:08:31;;;;;;;13.05;8.05;;;;;;;9.63;67.89;95565.75;5036942;28;20189;-66
2022/10/08 03:10:58;;;;;;;11.30;7.50;;;;;;;9.92;66.73;95581.59;5041076;28;20182;-66
2022/10/08 03:13:25;;;;;;;8.03;6.93;;;;;;;9.88;66.63;95574.94;5042660;28;20185;-66
2022/10/08 03:15:52;;;;;;;9.55;7.15;;;;;;;9.91;66.26;95558.91;5040808;28;20273;-66
2022/10/08 03:18:19;;;;;;;10.90;7.38;;;;;;;9.77;66.58;95568.97;5040899;28;20272;-66
2022/10/08 03:20:49;;;;;;;9.57;6.90;;;;;;;9.62;67.31;95566.72;5038092;28;20194;-66
2022/10/08 03:23:17;;;;;;;8.35;7.10;;;;;;;9.62;66.96;95556.22;5038797;28;20187;-67
2022/10/08 03:25:43;;;;;;;11.50;7.85;;;;;;;9.62;67.25;95560.63;5018577;28;20211;-66
2022/10/08 03:28:09;;;;;;;13.52;8.02;;;;;;;9.62;67.33;95564.09;5027455;28;20219;-67
2022/10/08 03:30:34;;;;;;;10.53;7.30;;;;;;;9.62;66.89;95560.63;5027239;28;20190;-67
2022/10/08 03:33:00;;;;;;;8.48;7.65;;;;;;;9.67;66.37;95556.63;5030455;28;20210;-67
2022/10/08 03:35:26;;;;;;;10.50;7.40;;;;;;;9.60;66.16;95563.41;5037061;28;20205;-67
2022/10/08 03:37:52;;;;;;;10.87;7.90;;;;;;;9.56;66.49;95559.34;5034687;28;20194;-67
2022/10/08 03:40:19;;;;;;;8.43;7.37;;;;;;;9.54;66.78;95557.81;5037572;28;20208;-67
2022/10/08 03:42:45;;;;;;;9.00;7.30;;;;;;;9.36;67.45;95558.47;5031768;28;20273;-66
2022/10/08 03:45:10;;;;;;;9.25;7.72;;;;;;;9.32;67.81;95548.34;5032258;28;20182;-67
2022/10/08 03:47:35;;;;;;;9.97;7.40;;;;;;;9.30;68.42;95555.50;5033979;28;20194;-67
2022/10/08 03:50:01;;;;;;;9.60;7.63;;;;;;;9.45;67.55;95548.94;5036059;28;20204;-67
2022/10/08 03:52:28;;;;;;;9.97;8.07;;;;;;;9.52;67.10;95546.66;5036059;28;20197;-66
2022/10/08 03:54:53;;;;;;;9.87;7.80;;;;;;;9.41;67.24;95552.78;5034083;28;20206;-66
2022/10/08 03:57:19;;;;;;;10.23;7.93;;;;;;;9.41;67.32;95555.41;5032224;28;20245;-67
2022/10/08 03:59:44;;;;;;;11.40;7.27;;;;;;;9.38;67.62;95558.31;5033617;28;20193;-67
2022/10/08 04:02:09;;;;;;;9.10;7.17;;;;;;;9.43;67.23;95556.13;5029254;28;20190;-66
2022/10/08 04:04:35;;;;;;;9.68;6.93;;;;;;;9.31;67.42;95559.81;5030417;28;20222;-67
2022/10/08 04:07:00;;;;;;;10.93;7.53;;;;;;;9.27;67.73;95557.44;5033651;28;20189;-67
2022/10/08 04:09:26;;;;;;;10.30;8.20;;;;;;;9.03;69.01;95570.00;5031711;28;20213;-68
2022/10/08 04:11:51;;;;;;;13.17;7.70;;;;;;;9.08;68.69;95562.56;5039486;28;20212;-67
2022/10/08 04:14:16;;;;;;;13.20;7.90;;;;;;;9.14;68.59;95556.84;5028372;28;20468;-67
2022/10/08 04:16:42;;;;;;;14.00;7.93;;;;;;;9.11;68.46;95562.31;5034344;28;20285;-67
2022/10/08 04:19:10;;;;;;;10.87;7.73;;;;;;;9.04;68.71;95555.94;5015836;28;20197;-67
2022/10/08 04:21:35;;;;;;;16.70;7.68;;;;;;;9.09;69.07;95569.50;5025552;28;20264;-67
2022/10/08 04:24:01;;;;;;;11.80;8.18;;;;;;;9.01;69.30;95566.69;5029330;28;20392;-67
2022/10/08 04:26:26;;;;;;;16.83;8.57;;;;;;;8.91;69.52;95565.78;5028189;28;20188;-67
2022/10/08 04:28:52;;;;;;;15.52;8.18;;;;;;;9.13;69.02;95570.06;5042227;28;20197;-67
2022/10/08 04:31:20;;;;;;;12.50;8.43;;;;;;;9.12;69.12;95569.25;5034535;28;20285;-67
2022/10/08 04:33:46;;;;;;;16.20;7.88;;;;;;;9.20;68.46;95551.06;5033059;28;20306;-66
2022/10/08 04:36:17;;;;;;;12.25;7.18;;;;;;;9.23;68.33;95560.47;5037872;28;20257;-67
2022/10/08 04:38:44;;;;;;;17.98;8.82;;;;;;;9.07;68.79;95550.44;5030533;28;20273;-67
2022/10/08 04:41:16;;;;;;;17.30;8.35;;;;;;;9.15;68.76;95550.59;5018224;28;20211;-66
2022/10/08 04:43:42;;;;;;;13.60;9.05;;;;;;;9.23;68.19;95553.41;5034248;28;20205;-66
2022/10/08 04:46:10;;;;;;;10.30;7.25;;;;;;;9.30;67.55;95550.25;5033326;28;20222;-66
2022/10/08 04:48:38;;;;;;;10.07;7.50;;;;;;;9.26;67.86;95554.94;5036969;28;20178;-67
2022/10/08 04:51:06;;;;;;;10.68;7.72;;;;;;;9.38;67.45;95556.53;5037168;28;20185;-67
2022/10/08 04:53:32;;;;;;;12.15;7.78;;;;;;;9.30;67.58;95555.50;5031923;28;20304;-66
2022/10/08 04:56:14;;;;;;;12.13;7.82;;;;;;;9.22;68.23;95564.88;5031769;28;20291;-66
2022/10/08 04:58:40;;;;;;;14.18;7.40;;;;;;;9.32;68.06;95564.09;5029863;28;20222;-66
2022/10/08 05:01:07;;;;;;;9.97;7.53;;;;;;;9.17;68.65;95567.06;5039878;28;20254;-66
2022/10/08 05:03:38;;;;;;;23.75;8.82;;;;;;;9.13;68.97;95567.44;5026531;28;20196;-66
2022/10/08 05:06:04;;;;;;;12.40;7.25;;;;;;;9.18;68.88;95566.09;5044238;28;20177;-66
2022/10/08 05:08:30;;;;;;;12.63;8.37;;;;;;;9.20;68.62;95566.78;5032071;28;20186;-66
2022/10/08 05:10:56;;;;;;;12.90;8.20;;;;;;;9.17;68.75;95556.56;5042228;28;20215;-70
2022/10/08 05:13:21;;;;;;;15.32;9.07;;;;;;;9.28;68.74;95563.53;5041001;28;20186;-68
2022/10/08 05:15:47;;;;;;;12.30;7.70;;;;;;;9.18;69.17;95546.91;5037248;28;20206;-69
2022/10/08 05:18:13;;;;;;;14.68;9.38;;;;;;;9.31;67.81;95554.56;5038942;28;20280;-69
2022/10/08 05:20:38;;;;;;;18.45;8.50;;;;;;;9.33;67.62;95558.72;5040852;28;20268;-69
2022/10/08 05:23:04;;;;;;;14.60;9.17;;;;;;;9.32;67.83;95567.53;5039416;28;20248;-69
2022/10/08 05:25:31;;;;;;;11.18;8.43;;;;;;;9.33;67.70;95563.97;5037080;28;20182;-69
2022/10/08 05:27:57;;;;;;;15.93;9.07;;;;;;;9.38;67.39;95561.78;5039590;28;20217;-69
2022/10/08 05:30:22;;;;;;;14.52;9.55;;;;;;;9.39;66.93;95565.25;5037277;28;20186;-69
2022/10/08 05:32:48;;;;;;;10.90;7.68;;;;;;;9.36;67.39;95566.31;5036890;28;20196;-69
2022/10/08 05:35:13;;;;;;;15.73;8.98;;;;;;;9.48;66.81;95567.88;5037267;28;20198;-71
2022/10/08 05:37:39;;;;;;;10.68;8.95;;;;;;;9.49;66.88;95566.13;5040420;28;20186;-70
2022/10/08 05:40:05;;;;;;;14.17;9.17;;;;;;;9.49;67.42;95566.94;5042802;28;20250;-69
2022/10/08 05:42:30;;;;;;;13.07;8.82;;;;;;;9.30;68.75;95566.00;5040267;28;20186;-69
2022/10/08 05:44:56;;;;;;;18.65;9.30;;;;;;;9.50;68.40;95573.03;5039310;28;20188;-69
2022/10/08 05:47:21;;;;;;;16.70;9.15;;;;;;;9.67;67.59;95572.38;5037993;28;20191;-70
2022/10/08 05:49:47;;;;;;;10.87;8.90;;;;;;;9.69;67.54;95574.88;5033602;28;20221;-69
2022/10/08 05:52:12;;;;;;;9.73;7.82;;;;;;;9.94;66.28;95571.81;5032579;28;20205;-67
2022/10/08 05:54:37;;;;;;;13.10;8.27;;;;;;;10.12;65.38;95573.78;5038415;28;20196;-67
2022/10/08 05:57:03;;;;;;;12.15;8.05;;;;;;;10.15;65.31;95578.75;5037010;28;20201;-69
2022/10/08 05:59:28;;;;;;;11.35;8.18;;;;;;;10.27;64.95;95568.97;5041517;28;20191;-67
2022/10/08 06:01:54;;;;;;;10.93;7.45;;;;;;;10.44;64.35;95578.00;5041626;28;20182;-66
2022/10/08 06:04:19;;;;;;;13.52;7.80;;;;;;;10.54;64.02;95576.22;5042327;28;20185;-68
2022/10/08 06:06:45;;;;;;;10.50;7.55;;;;;;;10.43;64.86;95566.66;5031124;28;20183;-68
2022/10/08 06:09:17;;;;;;;12.67;8.00;;;;;;;10.37;66.19;95567.19;5035769;28;20190;-70
2022/10/08 06:11:42;;;;;;;11.47;7.77;;;;;;;10.37;66.88;95564.56;5023488;28;20182;-68
2022/10/08 06:14:10;;;;;;;14.75;8.68;;;;;;;10.50;66.30;95565.13;5028529;28;20194;-68
2022/10/08 06:16:36;;;;;;;13.18;9.20;;;;;;;10.41;66.74;95563.34;5036365;28;20264;-67
2022/10/08 06:21:57;;;;;;;11.43;7.63;;;;;;;10.60;66.25;95568.59;5029033;28;20185;-70
2022/10/08 06:24:22;;;;;;;10.70;8.20;;;;;;;10.84;64.42;95567.34;5038715;28;20186;-69
2022/10/08 06:26:48;;;;;;;11.23;7.80;;;;;;;10.90;64.63;95565.94;5038697;28;20199;-68
2022/10/08 06:29:15;;;;;;;13.00;7.80;;;;;;;10.99;64.62;95568.56;5031540;28;20195;-68
2022/10/08 06:31:41;;;;;;;10.50;6.82;;;;;;;11.08;64.15;95563.44;5034648;28;20182;-68
2022/10/08 06:34:07;;;;;;;7.20;5.90;;;;;;;11.12;63.69;95568.28;5033466;28;20248;-66
2022/10/08 06:36:35;;;;;;;7.07;6.22;;;;;;;11.43;62.13;95562.78;5031981;28;20214;-67
2022/10/08 06:39:06;;;;;;;9.48;6.22;;;;;;;11.29;62.94;95560.63;5033499;28;20189;-68
2022/10/08 06:41:33;;;;;;;7.50;5.90;;;;;;;11.53;61.97;95571.50;5031555;28;20189;-68
2022/10/08 06:44:03;;;;;;;7.72;6.15;;;;;;;11.69;62.37;95578.78;5031366;28;20183;-68
2022/10/08 06:46:31;;;;;;;6.20;5.65;;;;;;;11.60;62.61;95566.47;5031931;28;20194;-67
2022/10/08 06:48:57;;;;;;;7.07;6.03;;;;;;;11.66;62.59;95563.28;5031860;28;20197;-68
2022/10/08 06:51:23;;;;;;;6.38;5.30;;;;;;;11.74;61.82;95563.38;5036764;28;20194;-68
2022/10/08 06:53:54;;;;;;;6.43;5.82;;;;;;;11.81;62.03;95564.44;5034306;28;20192;-68
2022/10/08 06:56:20;;;;;;;6.30;5.70;;;;;;;11.82;61.58;95563.47;5018822;28;20207;-68
2022/10/08 06:58:46;;;;;;;8.52;6.82;;;;;;;11.97;61.67;95558.56;5026338;28;20229;-67
2022/10/08 07:01:19;;;;;;;8.18;6.85;;;;;;;12.05;61.63;95566.56;5027168;28;20182;-67
2022/10/08 07:03:49;;;;;;;8.27;7.40;;;;;;;12.04;62.05;95564.09;5020602;28;20186;-68
2022/10/08 07:06:16;;;;;;;6.97;6.25;;;;;;;12.26;59.97;95568.94;5027404;28;20179;-68
2022/10/08 07:08:41;;;;;;;12.30;7.25;;;;;;;12.34;59.60;95563.75;5033350;28;20282;-67
2022/10/08 07:11:09;;;;;;;14.90;7.35;;;;;;;12.43;59.35;95561.19;5035562;28;20233;-67
2022/10/08 07:13:36;;;;;;;8.88;7.25;;;;;;;12.41;60.94;95569.28;5036367;28;20196;-67
2022/10/08 07:16:08;;;;;;;9.20;8.00;;;;;;;12.27;62.00;95565.34;5036458;28;20203;-67
2022/10/08 07:18:35;;;;;;;8.90;7.88;;;;;;;12.40;61.93;95564.97;5031386;28;20249;-67
2022/10/08 07:21:01;;;;;;;12.43;7.78;;;;;;;12.38;62.90;95566.94;5034854;28;20193;-67
2022/10/08 07:23:27;;;;;;;10.38;8.20;;;;;;;12.50;61.62;95564.91;5036151;28;20186;-67
2022/10/08 07:25:58;;;;;;;16.77;13.40;;;;;;;12.74;59.99;95551.94;5025348;28;20178;-67
2022/10/08 07:28:25;;;;;;;8.82;7.78;;;;;;;12.74;60.62;95562.47;5042975;28;20194;-67
2022/10/08 07:30:51;;;;;;;9.35;8.38;;;;;;;12.86;59.24;95551.72;5038484;28;20182;-66
2022/10/08 07:33:16;;;;;;;11.75;9.80;;;;;;;12.99;58.92;95555.63;5035258;28;20181;-66
2022/10/08 07:35:42;;;;;;;9.32;7.97;;;;;;;13.07;58.67;95556.63;5035508;28;20212;-66
2022/10/08 07:38:07;;;;;;;9.38;7.75;;;;;;;13.11;58.71;95553.53;5025784;28;20187;-67
2022/10/08 07:40:36;;;;;;;9.50;7.47;;;;;;;13.19;57.33;95556.25;5026883;28;20186;-67
2022/10/08 07:43:03;;;;;;;9.35;8.15;;;;;;;13.17;58.09;95557.38;5035808;28;20182;-67
2022/10/08 07:45:29;;;;;;;11.63;8.13;;;;;;;13.22;58.33;95547.19;5036090;28;20186;-67
2022/10/08 07:47:55;;;;;;;11.27;7.18;;;;;;;13.24;58.18;95547.84;5031385;28;20209;-67
2022/10/08 07:50:20;;;;;;;8.30;7.47;;;;;;;13.25;57.25;95546.88;5034908;28;20277;-67
2022/10/08 07:52:45;;;;;;;9.98;7.68;;;;;;;13.34;57.57;95542.50;5032859;28;20178;-67
2022/10/08 07:55:11;;;;;;;11.02;7.53;;;;;;;13.43;57.49;95545.03;5039199;28;20198;-67
2022/10/08 07:57:36;;;;;;;10.57;8.02;;;;;;;13.48;57.60;95544.56;5024605;28;20244;-67
2022/10/08 08:00:03;;;;;;;9.45;7.72;;;;;;;13.42;59.75;95542.56;5031548;28;20194;-67
2022/10/08 08:02:28;;;;;;;9.05;8.15;;;;;;;13.50;58.50;95541.75;5035884;28;20200;-67
2022/10/08 08:04:54;;;;;;;8.88;7.65;;;;;;;13.63;58.03;95542.16;5034175;28;20185;-67
2022/10/08 08:07:19;;;;;;;15.75;10.88;;;;;;;13.58;59.09;95545.28;5036406;28;20292;-67
2022/10/08 08:09:45;;;;;;;14.18;8.98;;;;;;;13.70;58.64;95539.72;5034778;28;20193;-67
2022/10/08 08:12:11;;;;;;;11.43;8.00;;;;;;;13.92;57.78;95538.31;5031037;28;20186;-67
2022/10/08 08:14:36;;;;;;;10.73;8.05;;;;;;;13.97;57.15;95531.56;5029622;28;20258;-66
2022/10/08 08:17:02;;;;;;;8.95;8.02;;;;;;;14.10;57.47;95541.69;5022095;28;20195;-66
2022/10/08 08:19:27;;;;;;;9.25;7.10;;;;;;;14.09;57.53;95532.94;5034148;28;20190;-66
2022/10/08 08:21:52;;;;;;;7.72;6.93;;;;;;;14.30;56.25;95524.56;5032438;28;20198;-67
2022/10/08 08:24:18;;;;;;;9.43;6.90;;;;;;;14.28;56.44;95526.53;5032601;28;20198;-67
2022/10/08 08:26:43;;;;;;;7.85;6.43;;;;;;;14.37;56.41;95529.22;5033557;28;20189;-66
2022/10/08 08:29:12;;;;;;;9.02;7.50;;;;;;;14.44;57.63;95522.28;5028697;28;20221;-67
2022/10/08 08:31:41;;;;;;;7.60;6.90;;;;;;;14.51;56.87;95518.81;5017152;28;20198;-67
2022/10/08 08:34:10;;;;;;;8.32;7.43;;;;;;;14.59;56.65;95518.00;5021156;28;20185;-67
2022/10/08 08:36:38;;;;;;;10.52;7.00;;;;;;;14.70;56.41;95514.22;5032012;28;20272;-67
2022/10/08 08:39:05;;;;;;;9.40;7.15;;;;;;;14.77;56.95;95521.34;5034513;28;20187;-67
2022/10/08 08:41:46;;;;;;;7.97;6.22;;;;;;;14.98;54.53;95509.41;5031694;28;20193;-67
2022/10/08 08:44:27;;;;;;;8.75;6.50;;;;;;;15.05;54.20;95498.97;5034846;28;20189;-66
2022/10/08 08:47:03;;;;;;;7.82;6.88;;;;;;;15.28;54.03;95518.47;5031818;28;20182;-67
2022/10/08 08:49:40;;;;;;;8.18;6.75;;;;;;;15.36;54.34;95510.50;5025345;28;20293;-67
2022/10/08 08:52:06;;;;;;;8.75;6.55;;;;;;;15.54;53.22;95506.84;5039078;28;20182;-66
2022/10/08 08:54:32;;;;;;;9.18;6.88;;;;;;;15.64;52.59;95500.34;5020320;28;20193;-67
2022/10/08 08:57:24;;;;;;;8.15;6.47;;;;;;;15.75;52.49;95509.78;5031832;28;20191;-67
2022/10/08 08:59:55;;;;;;;9.80;6.93;;;;;;;15.79;51.92;95503.13;5022343;28;20205;-67
2022/10/08 09:02:34;;;;;;;8.50;7.18;;;;;;;15.84;52.28;95505.25;5032261;28;20270;-67
2022/10/08 09:05:10;;;;;;;6.75;5.93;;;;;;;15.85;51.69;95505.09;5032596;28;20260;-66
2022/10/08 09:07:46;;;;;;;10.13;6.78;;;;;;;15.92;51.45;95499.09;5027701;28;20663;-66
2022/10/08 09:10:28;;;;;;;10.20;7.28;;;;;;;16.12;50.18;95491.53;5014989;28;20186;-66
2022/10/08 09:12:55;;;;;;;8.30;6.50;;;;;;;16.09;50.87;95490.03;5030719;28;20269;-66
2022/10/08 09:15:20;;;;;;;10.65;6.63;;;;;;;16.18;51.27;95480.25;5028040;28;20225;-66
2022/10/08 09:17:50;;;;;;;11.73;6.40;;;;;;;16.27;50.36;95481.81;5028429;28;20192;-67
2022/10/08 09:20:17;;;;;;;9.57;6.95;;;;;;;16.37;49.92;95477.13;5027962;28;20206;-67
2022/10/08 09:22:44;;;;;;;7.30;5.75;;;;;;;16.42;48.49;95482.72;5031589;28;20187;-68
2022/10/08 09:25:16;;;;;;;7.78;5.93;;;;;;;16.73;48.04;95487.97;5032848;28;20182;-69
2022/10/08 09:27:43;;;;;;;9.73;5.82;;;;;;;16.78;48.29;95474.19;5025271;28;20197;-67
2022/10/08 09:30:23;;;;;;;9.15;5.78;;;;;;;16.95;48.11;95469.56;5030988;28;20191;-67
2022/10/08 09:32:54;;;;;;;8.93;5.35;;;;;;;16.96;46.89;95464.06;5028212;28;20213;-67
2022/10/08 09:35:20;;;;;;;6.20;5.60;;;;;;;16.96;45.94;95472.03;5037655;28;20210;-67
2022/10/08 09:37:47;;;;;;;6.32;4.88;;;;;;;16.80;45.92;95453.59;5036187;28;20178;-67
2022/10/08 09:40:12;;;;;;;10.35;6.80;;;;;;;17.00;46.20;95458.38;5033647;28;20201;-67
2022/10/08 09:42:39;;;;;;;7.93;5.25;;;;;;;17.02;45.53;95459.03;5030990;28;20194;-67
2022/10/08 09:45:37;;;;;;;5.70;4.68;;;;;;;17.21;44.62;95453.19;5020346;28;20183;-67
2022/10/08 09:48:19;;;;;;;4.95;4.45;;;;;;;17.28;45.81;95453.31;5035018;28;20209;-66
2022/10/08 09:50:49;;;;;;;6.70;4.65;;;;;;;17.36;44.98;95450.56;5039494;28;20186;-66
2022/10/08 09:53:16;;;;;;;6.68;4.57;;;;;;;17.66;43.59;95447.88;5042876;28;20239;-65
2022/10/08 09:55:49;;;;;;;11.48;5.00;;;;;;;17.85;44.50;95452.66;5037736;28;20204;-66
2022/10/08 09:58:17;;;;;;;5.05;4.50;;;;;;;18.00;43.25;95449.97;5021875;28;20240;-67
2022/10/08 10:00:43;;;;;;;7.68;4.65;;;;;;;18.03;42.90;95439.75;5036995;28;20209;-66
2022/10/08 10:03:16;;;;;;;7.07;4.50;;;;;;;18.08;41.85;95439.22;5034960;28;20185;-66
2022/10/08 10:05:42;;;;;;;6.57;4.20;;;;;;;18.06;41.89;95443.88;5034279;28;20254;-66
2022/10/08 10:08:47;;;;;;;5.72;3.70;;;;;;;18.17;41.29;95426.59;5042052;28;20191;-66
2022/10/08 10:11:36;;;;;;;8.10;3.78;;;;;;;18.25;40.62;95429.16;5027421;28;20665;-66
2022/10/08 10:14:24;;;;;;;4.28;3.83;;;;;;;18.14;40.21;95422.47;5014180;28;20202;-66
2022/10/08 10:17:03;;;;;;;3.88;3.33;;;;;;;18.06;39.86;95415.44;5025284;28;20198;-67
2022/10/08 10:19:36;;;;;;;9.52;4.78;;;;;;;18.25;40.37;95415.84;5023399;28;20235;-65
2022/10/08 10:22:12;;;;;;;5.40;3.50;;;;;;;18.55;40.08;95416.56;5010893;28;20195;-66
2022/10/08 10:24:59;;;;;;;6.07;3.40;;;;;;;18.51;37.82;95417.94;5024520;28;20205;-67
2022/10/08 10:27:31;;;;;;;5.38;3.00;;;;;;;18.55;38.76;95402.38;5016414;28;20283;-67
2022/10/08 10:30:16;;;;;;;5.35;3.30;;;;;;;18.82;38.02;95408.78;5017732;28;20182;-67
2022/10/08 10:33:12;;;;;;;6.38;3.33;;;;;;;19.01;38.57;95399.31;5014829;28;20222;-67
2022/10/08 10:35:46;;;;;;;5.43;3.17;;;;;;;19.14;38.41;95399.41;4923430;29;20214;-66
2022/10/08 10:38:19;;;;;;;4.82;3.40;;;;;;;19.26;38.07;95383.69;4934822;29;20204;-67
2022/10/08 10:41:08;;;;;;;5.07;3.67;;;;;;;19.26;38.72;95397.81;4931072;29;20198;-66
2022/10/08 10:43:35;;;;;;;3.70;3.15;;;;;;;19.33;37.68;95388.03;4923345;29;20284;-67
2022/10/08 10:46:19;;;;;;;3.85;3.08;;;;;;;19.35;37.96;95390.47;4918725;29;20262;-66
2022/10/08 10:48:45;;;;;;;5.03;4.43;;;;;;;19.44;38.30;95375.97;4931186;29;20190;-67
2022/10/08 10:51:34;;;;;;;7.82;5.50;;;;;;;19.50;37.71;95374.34;4949217;28;20204;-67
2022/10/08 10:54:47;;;;;;;6.20;3.95;;;;;;;19.63;36.83;95369.09;4938546;28;20595;-67
2022/10/08 10:57:39;;;;;;;7.40;3.65;;;;;;;19.62;37.00;95356.78;4887648;29;20206;-67
2022/10/08 11:00:21;;;;;;;5.50;3.40;;;;;;;19.80;37.25;95353.56;4866149;29;20211;-68
2022/10/08 11:03:08;;;;;;;4.80;3.72;;;;;;;19.78;37.00;95348.44;4870748;29;20199;-69
2022/10/08 11:05:36;;;;;;;4.90;3.25;;;;;;;19.97;37.40;95338.84;4862734;29;20199;-68
2022/10/08 11:08:34;;;;;;;3.30;2.97;;;;;;;20.15;37.57;95351.59;4865398;29;20200;-67
2022/10/08 11:11:24;;;;;;;4.70;2.67;;;;;;;20.23;34.62;95342.56;4876308;29;20214;-68
2022/10/08 11:14:14;;;;;;;3.40;2.90;;;;;;;20.24;34.42;95337.03;4955766;28;20196;-68
2022/10/08 11:17:04;;;;;;;3.42;3.13;;;;;;;20.43;34.75;95342.59;4943261;29;20212;-68
2022/10/08 11:20:14;;;;;;;4.97;3.30;;;;;;;20.68;34.79;95332.13;4937548;29;20288;-68
2022/10/08 11:22:48;;;;;;;6.00;3.08;;;;;;;20.98;34.19;95326.34;4931717;29;20216;-67
2022/10/08 11:25:45;;;;;;;4.18;3.00;;;;;;;21.26;33.36;95318.84;4918765;29;20181;-67
2022/10/08 11:28:44;;;;;;;3.97;2.72;;;;;;;21.41;32.72;95317.81;4939452;28;20200;-68
2022/10/08 11:31:40;;;;;;;4.32;2.67;;;;;;;21.26;32.16;95310.84;4976305;28;20255;-69
2022/10/08 11:34:18;;;;;;;3.47;3.00;;;;;;;21.50;32.30;95303.97;4957800;28;20200;-70
2022/10/08 11:37:02;;;;;;;6.93;3.20;;;;;;;21.62;32.50;95306.81;4961274;28;20208;-70
2022/10/08 11:39:46;;;;;;;3.50;3.20;;;;;;;21.79;31.17;95307.16;4962074;28;20216;-69
2022/10/08 11:42:18;;;;;;;3.85;2.92;;;;;;;21.86;30.75;95299.88;4960679;28;20270;-67
2022/10/08 11:44:43;;;;;;;4.45;2.95;;;;;;;21.89;31.73;95295.94;4977649;28;20290;-68
2022/10/08 11:47:34;;;;;;;4.15;3.10;;;;;;;21.56;31.69;95292.41;4970911;28;20287;-69
2022/10/08 11:50:03;;;;;;;3.45;3.15;;;;;;;21.88;32.07;95287.09;4939470;28;20199;-69
2022/10/08 11:52:32;;;;;;;4.60;2.75;;;;;;;21.85;31.31;95286.72;4957955;28;20195;-69
2022/10/08 11:55:03;;;;;;;4.63;2.95;;;;;;;22.44;31.87;95289.00;4973002;28;20212;-68
2022/10/08 11:57:34;;;;;;;3.17;2.83;;;;;;;22.53;29.14;95283.34;4955519;28;20217;-68